sensor_id;sensor_type;location;lat;lon;timestamp;P1;durP1;ratioP1;P2;durP2;ratioP2
3779;SDS011;1905;52.482;9.802;2024-02-14T00:00:21;8.10;;;2.00;;
3779;SDS011;1905;52.482;9.802;2024-02-14T00:02:50;7.97;;;2.63;;
3779;SDS011;1905;52.482;9.802;2024-02-14T00:05:18;7.10;;;2.10;;
3779;SDS011;1905;52.482;9.802;2024-02-14T00:07:45;6.50;;;2.00;;
3779;SDS011;1905;52.482;9.802;2024-02-14T00:10:13;6.50;;;1.90;;
3779;SDS011;1905;52.482;9.802;2024-02-14T00:12:41;6.83;;;1.60;;
3779;SDS011;1905;52.482;9.802;2024-02-14T00:15:08;7.17;;;2.07;;
3779;SDS011;1905;52.482;9.802;2024-02-14T00:17:38;6.97;;;2.00;;
3779;SDS011;1905;52.482;9.802;2024-02-14T00:20:06;7.17;;;2.97;;
3779;SDS011;1905;52.482;9.802;2024-02-14T00:22:36;6.23;;;1.83;;
3779;SDS011;1905;52.482;9.802;2024-02-14T00:25:04;7.03;;;2.23;;
3779;SDS011;1905;52.482;9.802;2024-02-14T00:27:32;6.20;;;1.70;;
3779;SDS011;1905;52.482;9.802;2024-02-14T00:29:59;8.53;;;2.10;;
3779;SDS011;1905;52.482;9.802;2024-02-14T00:32:29;7.33;;;2.37;;
3779;SDS011;1905;52.482;9.802;2024-02-14T00:34:59;7.97;;;2.27;;
3779;SDS011;1905;52.482;9.802;2024-02-14T00:37:27;7.73;;;1.90;;
3779;SDS011;1905;52.482;9.802;2024-02-14T00:39:55;6.27;;;1.90;;
3779;SDS011;1905;52.482;9.802;2024-02-14T00:42:24;6.87;;;2.00;;
3779;SDS011;1905;52.482;9.802;2024-02-14T00:44:51;7.13;;;2.40;;
3779;SDS011;1905;52.482;9.802;2024-02-14T00:47:19;9.73;;;2.07;;
3779;SDS011;1905;52.482;9.802;2024-02-14T00:49:46;8.10;;;2.07;;
3779;SDS011;1905;52.482;9.802;2024-02-14T00:52:15;9.77;;;1.87;;
3779;SDS011;1905;52.482;9.802;2024-02-14T00:54:43;7.80;;;2.13;;
3779;SDS011;1905;52.482;9.802;2024-02-14T00:57:11;7.80;;;2.23;;
3779;SDS011;1905;52.482;9.802;2024-02-14T00:59:38;7.30;;;2.00;;
3779;SDS011;1905;52.482;9.802;2024-02-14T01:02:06;7.43;;;2.10;;
3779;SDS011;1905;52.482;9.802;2024-02-14T01:04:34;6.10;;;1.87;;
3779;SDS011;1905;52.482;9.802;2024-02-14T01:07:02;7.03;;;2.00;;
3779;SDS011;1905;52.482;9.802;2024-02-14T01:09:31;10.87;;;2.30;;
3779;SDS011;1905;52.482;9.802;2024-02-14T01:11:59;7.87;;;2.00;;
3779;SDS011;1905;52.482;9.802;2024-02-14T01:14:27;6.40;;;1.63;;
3779;SDS011;1905;52.482;9.802;2024-02-14T01:16:54;6.93;;;2.20;;
3779;SDS011;1905;52.482;9.802;2024-02-14T01:19:22;6.20;;;1.80;;
3779;SDS011;1905;52.482;9.802;2024-02-14T01:21:54;8.30;;;2.10;;
3779;SDS011;1905;52.482;9.802;2024-02-14T01:24:23;11.33;;;2.90;;
3779;SDS011;1905;52.482;9.802;2024-02-14T01:26:54;8.43;;;1.97;;
3779;SDS011;1905;52.482;9.802;2024-02-14T01:29:22;6.43;;;1.77;;
3779;SDS011;1905;52.482;9.802;2024-02-14T01:31:50;6.80;;;1.80;;
3779;SDS011;1905;52.482;9.802;2024-02-14T01:34:17;7.30;;;2.20;;
3779;SDS011;1905;52.482;9.802;2024-02-14T01:36:45;6.63;;;1.90;;
3779;SDS011;1905;52.482;9.802;2024-02-14T01:39:13;8.00;;;2.23;;
3779;SDS011;1905;52.482;9.802;2024-02-14T01:41:43;7.10;;;2.03;;
3779;SDS011;1905;52.482;9.802;2024-02-14T01:44:13;8.87;;;2.00;;
3779;SDS011;1905;52.482;9.802;2024-02-14T01:46:41;7.10;;;2.40;;
3779;SDS011;1905;52.482;9.802;2024-02-14T01:49:09;7.70;;;2.07;;
3779;SDS011;1905;52.482;9.802;2024-02-14T01:51:39;6.80;;;2.10;;
3779;SDS011;1905;52.482;9.802;2024-02-14T01:54:08;6.97;;;2.50;;
3779;SDS011;1905;52.482;9.802;2024-02-14T01:56:37;10.43;;;2.20;;
3779;SDS011;1905;52.482;9.802;2024-02-14T01:59:05;8.10;;;2.80;;
3779;SDS011;1905;52.482;9.802;2024-02-14T02:01:34;7.70;;;2.53;;
3779;SDS011;1905;52.482;9.802;2024-02-14T02:04:02;7.33;;;2.50;;
3779;SDS011;1905;52.482;9.802;2024-02-14T02:06:31;8.03;;;2.20;;
3779;SDS011;1905;52.482;9.802;2024-02-14T02:08:59;8.03;;;2.30;;
3779;SDS011;1905;52.482;9.802;2024-02-14T02:11:27;6.67;;;2.20;;
3779;SDS011;1905;52.482;9.802;2024-02-14T02:13:55;6.90;;;2.53;;
3779;SDS011;1905;52.482;9.802;2024-02-14T02:16:23;9.20;;;2.00;;
3779;SDS011;1905;52.482;9.802;2024-02-14T02:18:52;6.87;;;2.03;;
3779;SDS011;1905;52.482;9.802;2024-02-14T02:21:21;7.70;;;2.30;;
3779;SDS011;1905;52.482;9.802;2024-02-14T02:23:51;7.27;;;2.03;;
3779;SDS011;1905;52.482;9.802;2024-02-14T02:26:19;10.90;;;2.70;;
3779;SDS011;1905;52.482;9.802;2024-02-14T02:28:46;6.83;;;1.80;;
3779;SDS011;1905;52.482;9.802;2024-02-14T02:31:14;9.50;;;2.63;;
3779;SDS011;1905;52.482;9.802;2024-02-14T02:33:41;7.57;;;2.30;;
3779;SDS011;1905;52.482;9.802;2024-02-14T02:36:09;6.80;;;2.30;;
3779;SDS011;1905;52.482;9.802;2024-02-14T02:38:37;7.53;;;2.53;;
3779;SDS011;1905;52.482;9.802;2024-02-14T02:41:06;7.27;;;2.20;;
3779;SDS011;1905;52.482;9.802;2024-02-14T02:43:34;8.97;;;2.83;;
3779;SDS011;1905;52.482;9.802;2024-02-14T02:46:02;7.17;;;2.10;;
3779;SDS011;1905;52.482;9.802;2024-02-14T02:48:29;8.10;;;3.27;;
3779;SDS011;1905;52.482;9.802;2024-02-14T02:50:58;7.13;;;2.37;;
3779;SDS011;1905;52.482;9.802;2024-02-14T02:53:26;7.20;;;2.37;;
3779;SDS011;1905;52.482;9.802;2024-02-14T02:55:53;7.03;;;2.40;;
3779;SDS011;1905;52.482;9.802;2024-02-14T02:58:24;8.57;;;2.53;;
3779;SDS011;1905;52.482;9.802;2024-02-14T03:00:52;8.07;;;2.43;;
3779;SDS011;1905;52.482;9.802;2024-02-14T03:03:22;6.80;;;2.27;;
3779;SDS011;1905;52.482;9.802;2024-02-14T03:05:54;7.20;;;2.50;;
3779;SDS011;1905;52.482;9.802;2024-02-14T03:08:23;9.23;;;2.43;;
3779;SDS011;1905;52.482;9.802;2024-02-14T03:10:52;7.90;;;2.30;;
3779;SDS011;1905;52.482;9.802;2024-02-14T03:13:19;8.80;;;2.77;;
3779;SDS011;1905;52.482;9.802;2024-02-14T03:15:49;8.63;;;3.43;;
3779;SDS011;1905;52.482;9.802;2024-02-14T03:18:17;8.37;;;2.90;;
3779;SDS011;1905;52.482;9.802;2024-02-14T03:20:44;8.23;;;2.90;;
3779;SDS011;1905;52.482;9.802;2024-02-14T03:23:12;8.00;;;2.80;;
3779;SDS011;1905;52.482;9.802;2024-02-14T03:25:41;8.50;;;2.80;;
3779;SDS011;1905;52.482;9.802;2024-02-14T03:28:09;9.43;;;2.87;;
3779;SDS011;1905;52.482;9.802;2024-02-14T03:30:39;11.43;;;4.20;;
3779;SDS011;1905;52.482;9.802;2024-02-14T03:33:08;7.40;;;2.23;;
3779;SDS011;1905;52.482;9.802;2024-02-14T03:35:36;9.13;;;2.80;;
3779;SDS011;1905;52.482;9.802;2024-02-14T03:38:04;11.00;;;2.97;;
3779;SDS011;1905;52.482;9.802;2024-02-14T03:40:34;8.30;;;2.77;;
3779;SDS011;1905;52.482;9.802;2024-02-14T03:43:03;9.93;;;2.70;;
3779;SDS011;1905;52.482;9.802;2024-02-14T03:45:31;9.70;;;2.57;;
3779;SDS011;1905;52.482;9.802;2024-02-14T03:47:58;7.93;;;2.83;;
3779;SDS011;1905;52.482;9.802;2024-02-14T03:50:28;10.23;;;2.60;;
3779;SDS011;1905;52.482;9.802;2024-02-14T03:52:55;9.80;;;2.90;;
3779;SDS011;1905;52.482;9.802;2024-02-14T03:55:23;8.17;;;3.23;;
3779;SDS011;1905;52.482;9.802;2024-02-14T03:57:51;8.30;;;3.10;;
3779;SDS011;1905;52.482;9.802;2024-02-14T04:00:18;11.27;;;3.53;;
3779;SDS011;1905;52.482;9.802;2024-02-14T04:02:48;10.30;;;3.23;;
3779;SDS011;1905;52.482;9.802;2024-02-14T04:05:19;8.27;;;3.00;;
3779;SDS011;1905;52.482;9.802;2024-02-14T04:07:48;8.20;;;2.90;;
3779;SDS011;1905;52.482;9.802;2024-02-14T04:10:18;8.27;;;3.10;;
3779;SDS011;1905;52.482;9.802;2024-02-14T04:12:46;9.50;;;2.93;;
3779;SDS011;1905;52.482;9.802;2024-02-14T04:15:13;8.60;;;3.13;;
3779;SDS011;1905;52.482;9.802;2024-02-14T04:17:41;9.70;;;2.97;;
3779;SDS011;1905;52.482;9.802;2024-02-14T04:20:09;14.00;;;3.70;;
3779;SDS011;1905;52.482;9.802;2024-02-14T04:22:37;7.77;;;2.70;;
3779;SDS011;1905;52.482;9.802;2024-02-14T04:25:08;7.73;;;2.60;;
3779;SDS011;1905;52.482;9.802;2024-02-14T04:27:35;7.80;;;2.40;;
3779;SDS011;1905;52.482;9.802;2024-02-14T04:30:04;8.87;;;3.30;;
3779;SDS011;1905;52.482;9.802;2024-02-14T04:32:32;9.43;;;3.10;;
3779;SDS011;1905;52.482;9.802;2024-02-14T04:35:00;8.67;;;3.33;;
3779;SDS011;1905;52.482;9.802;2024-02-14T04:37:28;7.17;;;2.20;;
3779;SDS011;1905;52.482;9.802;2024-02-14T04:39:56;8.50;;;2.67;;
3779;SDS011;1905;52.482;9.802;2024-02-14T04:42:25;9.03;;;3.23;;
3779;SDS011;1905;52.482;9.802;2024-02-14T04:44:52;11.77;;;3.33;;
3779;SDS011;1905;52.482;9.802;2024-02-14T04:47:20;10.30;;;2.60;;
3779;SDS011;1905;52.482;9.802;2024-02-14T04:49:47;7.60;;;2.50;;
3779;SDS011;1905;52.482;9.802;2024-02-14T04:52:15;13.23;;;3.97;;
3779;SDS011;1905;52.482;9.802;2024-02-14T04:54:43;8.30;;;3.00;;
3779;SDS011;1905;52.482;9.802;2024-02-14T04:57:11;8.00;;;2.73;;
3779;SDS011;1905;52.482;9.802;2024-02-14T04:59:40;9.00;;;2.90;;
3779;SDS011;1905;52.482;9.802;2024-02-14T05:02:07;7.23;;;2.23;;
3779;SDS011;1905;52.482;9.802;2024-02-14T05:04:36;7.13;;;2.57;;
3779;SDS011;1905;52.482;9.802;2024-02-14T05:07:05;7.47;;;2.57;;
3779;SDS011;1905;52.482;9.802;2024-02-14T05:09:34;9.83;;;4.20;;
3779;SDS011;1905;52.482;9.802;2024-02-14T05:12:01;7.90;;;2.90;;
3779;SDS011;1905;52.482;9.802;2024-02-14T05:14:30;9.07;;;3.10;;
3779;SDS011;1905;52.482;9.802;2024-02-14T05:16:59;9.63;;;3.60;;
3779;SDS011;1905;52.482;9.802;2024-02-14T05:19:27;12.03;;;3.10;;
3779;SDS011;1905;52.482;9.802;2024-02-14T05:21:56;10.30;;;3.80;;
3779;SDS011;1905;52.482;9.802;2024-02-14T05:24:23;8.23;;;2.60;;
3779;SDS011;1905;52.482;9.802;2024-02-14T05:26:53;8.10;;;3.53;;
3779;SDS011;1905;52.482;9.802;2024-02-14T05:29:21;8.27;;;3.23;;
3779;SDS011;1905;52.482;9.802;2024-02-14T05:31:48;8.00;;;3.20;;
3779;SDS011;1905;52.482;9.802;2024-02-14T05:34:19;9.30;;;3.23;;
3779;SDS011;1905;52.482;9.802;2024-02-14T05:36:47;12.30;;;3.70;;
3779;SDS011;1905;52.482;9.802;2024-02-14T05:39:15;8.97;;;3.23;;
3779;SDS011;1905;52.482;9.802;2024-02-14T05:41:42;8.60;;;3.07;;
3779;SDS011;1905;52.482;9.802;2024-02-14T05:44:10;9.10;;;2.83;;
3779;SDS011;1905;52.482;9.802;2024-02-14T05:46:38;7.47;;;2.70;;
3779;SDS011;1905;52.482;9.802;2024-02-14T05:49:05;8.00;;;3.30;;
3779;SDS011;1905;52.482;9.802;2024-02-14T05:51:34;9.30;;;2.63;;
3779;SDS011;1905;52.482;9.802;2024-02-14T05:54:03;8.80;;;3.20;;
3779;SDS011;1905;52.482;9.802;2024-02-14T05:56:32;8.53;;;2.90;;
3779;SDS011;1905;52.482;9.802;2024-02-14T05:58:59;11.90;;;3.10;;
3779;SDS011;1905;52.482;9.802;2024-02-14T06:01:27;8.77;;;2.83;;
3779;SDS011;1905;52.482;9.802;2024-02-14T06:03:55;8.97;;;3.27;;
3779;SDS011;1905;52.482;9.802;2024-02-14T06:06:23;7.87;;;2.87;;
3779;SDS011;1905;52.482;9.802;2024-02-14T06:08:52;8.37;;;3.07;;
3779;SDS011;1905;52.482;9.802;2024-02-14T06:11:21;7.23;;;2.80;;
3779;SDS011;1905;52.482;9.802;2024-02-14T06:13:48;8.87;;;3.20;;
3779;SDS011;1905;52.482;9.802;2024-02-14T06:16:16;8.67;;;3.63;;
3779;SDS011;1905;52.482;9.802;2024-02-14T06:18:44;9.63;;;3.40;;
3779;SDS011;1905;52.482;9.802;2024-02-14T06:21:12;8.00;;;3.00;;
3779;SDS011;1905;52.482;9.802;2024-02-14T06:23:40;7.47;;;2.63;;
3779;SDS011;1905;52.482;9.802;2024-02-14T06:26:14;8.27;;;3.00;;
3779;SDS011;1905;52.482;9.802;2024-02-14T06:28:44;9.50;;;3.30;;
3779;SDS011;1905;52.482;9.802;2024-02-14T06:31:11;9.90;;;2.87;;
3779;SDS011;1905;52.482;9.802;2024-02-14T06:33:38;13.60;;;2.80;;
3779;SDS011;1905;52.482;9.802;2024-02-14T06:36:06;8.67;;;3.13;;
3779;SDS011;1905;52.482;9.802;2024-02-14T06:38:34;9.33;;;3.10;;
3779;SDS011;1905;52.482;9.802;2024-02-14T06:41:02;9.13;;;3.33;;
3779;SDS011;1905;52.482;9.802;2024-02-14T06:43:31;7.73;;;2.97;;
3779;SDS011;1905;52.482;9.802;2024-02-14T06:45:58;10.13;;;3.27;;
3779;SDS011;1905;52.482;9.802;2024-02-14T06:48:26;8.50;;;2.67;;
3779;SDS011;1905;52.482;9.802;2024-02-14T06:50:54;8.63;;;2.77;;
3779;SDS011;1905;52.482;9.802;2024-02-14T06:53:21;8.67;;;2.90;;
3779;SDS011;1905;52.482;9.802;2024-02-14T06:55:49;8.83;;;2.70;;
3779;SDS011;1905;52.482;9.802;2024-02-14T06:58:17;9.47;;;2.90;;
3779;SDS011;1905;52.482;9.802;2024-02-14T07:00:46;9.43;;;3.50;;
3779;SDS011;1905;52.482;9.802;2024-02-14T07:03:14;9.70;;;3.00;;
3779;SDS011;1905;52.482;9.802;2024-02-14T07:05:42;8.17;;;2.77;;
3779;SDS011;1905;52.482;9.802;2024-02-14T07:08:10;8.27;;;2.40;;
3779;SDS011;1905;52.482;9.802;2024-02-14T07:10:37;8.03;;;2.70;;
3779;SDS011;1905;52.482;9.802;2024-02-14T07:13:05;9.10;;;3.23;;
3779;SDS011;1905;52.482;9.802;2024-02-14T07:15:33;12.03;;;3.17;;
3779;SDS011;1905;52.482;9.802;2024-02-14T07:18:02;9.90;;;3.07;;
3779;SDS011;1905;52.482;9.802;2024-02-14T07:20:30;9.83;;;3.20;;
3779;SDS011;1905;52.482;9.802;2024-02-14T07:22:58;9.87;;;3.10;;
3779;SDS011;1905;52.482;9.802;2024-02-14T07:25:25;22.00;;;3.03;;
3779;SDS011;1905;52.482;9.802;2024-02-14T07:27:53;11.20;;;2.87;;
3779;SDS011;1905;52.482;9.802;2024-02-14T07:30:20;10.70;;;2.90;;
3779;SDS011;1905;52.482;9.802;2024-02-14T07:32:48;7.93;;;2.57;;
3779;SDS011;1905;52.482;9.802;2024-02-14T07:35:18;11.33;;;3.23;;
3779;SDS011;1905;52.482;9.802;2024-02-14T07:37:46;9.23;;;2.80;;
3779;SDS011;1905;52.482;9.802;2024-02-14T07:40:14;8.73;;;3.27;;
3779;SDS011;1905;52.482;9.802;2024-02-14T07:42:44;8.73;;;2.77;;
3779;SDS011;1905;52.482;9.802;2024-02-14T07:45:11;10.60;;;3.43;;
3779;SDS011;1905;52.482;9.802;2024-02-14T07:47:40;11.63;;;3.10;;
3779;SDS011;1905;52.482;9.802;2024-02-14T07:50:08;8.03;;;3.53;;
3779;SDS011;1905;52.482;9.802;2024-02-14T07:52:40;9.80;;;2.57;;
3779;SDS011;1905;52.482;9.802;2024-02-14T07:55:09;9.03;;;2.87;;
3779;SDS011;1905;52.482;9.802;2024-02-14T07:57:38;8.37;;;3.30;;
3779;SDS011;1905;52.482;9.802;2024-02-14T08:00:06;8.30;;;3.23;;
3779;SDS011;1905;52.482;9.802;2024-02-14T08:02:35;7.87;;;2.90;;
3779;SDS011;1905;52.482;9.802;2024-02-14T08:05:03;7.37;;;2.73;;
3779;SDS011;1905;52.482;9.802;2024-02-14T08:07:32;8.27;;;2.63;;
3779;SDS011;1905;52.482;9.802;2024-02-14T08:10:01;8.67;;;3.20;;
3779;SDS011;1905;52.482;9.802;2024-02-14T08:12:28;7.60;;;2.70;;
3779;SDS011;1905;52.482;9.802;2024-02-14T08:14:56;8.20;;;2.90;;
3779;SDS011;1905;52.482;9.802;2024-02-14T08:17:24;7.07;;;2.37;;
3779;SDS011;1905;52.482;9.802;2024-02-14T08:19:52;8.27;;;2.60;;
3779;SDS011;1905;52.482;9.802;2024-02-14T08:22:20;7.40;;;2.43;;
3779;SDS011;1905;52.482;9.802;2024-02-14T08:24:47;7.40;;;2.40;;
3779;SDS011;1905;52.482;9.802;2024-02-14T08:27:16;8.77;;;3.10;;
3779;SDS011;1905;52.482;9.802;2024-02-14T08:29:44;7.43;;;2.03;;
3779;SDS011;1905;52.482;9.802;2024-02-14T08:32:12;8.50;;;2.87;;
3779;SDS011;1905;52.482;9.802;2024-02-14T08:34:40;8.80;;;2.10;;
3779;SDS011;1905;52.482;9.802;2024-02-14T08:37:08;6.70;;;2.37;;
3779;SDS011;1905;52.482;9.802;2024-02-14T08:39:36;7.33;;;2.53;;
3779;SDS011;1905;52.482;9.802;2024-02-14T08:42:04;8.87;;;2.40;;
3779;SDS011;1905;52.482;9.802;2024-02-14T08:44:35;7.70;;;2.67;;
3779;SDS011;1905;52.482;9.802;2024-02-14T08:47:04;8.90;;;2.47;;
3779;SDS011;1905;52.482;9.802;2024-02-14T08:49:33;7.47;;;2.20;;
3779;SDS011;1905;52.482;9.802;2024-02-14T08:52:01;6.90;;;2.20;;
3779;SDS011;1905;52.482;9.802;2024-02-14T08:54:29;7.07;;;2.13;;
3779;SDS011;1905;52.482;9.802;2024-02-14T08:56:58;7.40;;;1.77;;
3779;SDS011;1905;52.482;9.802;2024-02-14T08:59:26;6.70;;;2.20;;
3779;SDS011;1905;52.482;9.802;2024-02-14T09:01:56;7.67;;;2.40;;
3779;SDS011;1905;52.482;9.802;2024-02-14T09:04:23;8.00;;;2.00;;
3779;SDS011;1905;52.482;9.802;2024-02-14T09:06:51;7.30;;;2.40;;
3779;SDS011;1905;52.482;9.802;2024-02-14T09:09:18;9.50;;;2.80;;
3779;SDS011;1905;52.482;9.802;2024-02-14T09:11:46;7.67;;;2.17;;
3779;SDS011;1905;52.482;9.802;2024-02-14T09:14:14;8.07;;;2.87;;
3779;SDS011;1905;52.482;9.802;2024-02-14T09:16:41;8.83;;;3.10;;
3779;SDS011;1905;52.482;9.802;2024-02-14T09:19:12;8.57;;;3.00;;
3779;SDS011;1905;52.482;9.802;2024-02-14T09:21:40;8.60;;;3.10;;
3779;SDS011;1905;52.482;9.802;2024-02-14T09:24:08;9.90;;;3.60;;
3779;SDS011;1905;52.482;9.802;2024-02-14T09:26:36;9.83;;;4.00;;
3779;SDS011;1905;52.482;9.802;2024-02-14T09:29:04;10.40;;;4.03;;
3779;SDS011;1905;52.482;9.802;2024-02-14T09:31:32;10.77;;;3.83;;
3779;SDS011;1905;52.482;9.802;2024-02-14T09:33:59;11.60;;;4.30;;
3779;SDS011;1905;52.482;9.802;2024-02-14T09:36:29;9.47;;;3.90;;
3779;SDS011;1905;52.482;9.802;2024-02-14T09:38:56;12.20;;;4.80;;
3779;SDS011;1905;52.482;9.802;2024-02-14T09:41:29;9.73;;;4.30;;
3779;SDS011;1905;52.482;9.802;2024-02-14T09:44:01;13.30;;;5.00;;
3779;SDS011;1905;52.482;9.802;2024-02-14T09:46:29;13.00;;;5.60;;
3779;SDS011;1905;52.482;9.802;2024-02-14T09:48:58;13.07;;;6.43;;
3779;SDS011;1905;52.482;9.802;2024-02-14T09:51:26;14.10;;;5.60;;
3779;SDS011;1905;52.482;9.802;2024-02-14T09:53:58;16.70;;;5.40;;
3779;SDS011;1905;52.482;9.802;2024-02-14T09:56:27;12.80;;;5.97;;
3779;SDS011;1905;52.482;9.802;2024-02-14T09:58:57;15.17;;;7.37;;
3779;SDS011;1905;52.482;9.802;2024-02-14T10:01:26;13.27;;;5.87;;
3779;SDS011;1905;52.482;9.802;2024-02-14T10:03:54;13.20;;;6.67;;
3779;SDS011;1905;52.482;9.802;2024-02-14T10:06:22;13.27;;;5.73;;
3779;SDS011;1905;52.482;9.802;2024-02-14T10:08:51;14.07;;;7.20;;
3779;SDS011;1905;52.482;9.802;2024-02-14T10:11:29;15.67;;;8.03;;
3779;SDS011;1905;52.482;9.802;2024-02-14T10:13:59;14.70;;;6.13;;
3779;SDS011;1905;52.482;9.802;2024-02-14T10:16:31;14.10;;;7.07;;
3779;SDS011;1905;52.482;9.802;2024-02-14T10:18:59;17.10;;;6.63;;
3779;SDS011;1905;52.482;9.802;2024-02-14T10:21:27;12.73;;;6.10;;
3779;SDS011;1905;52.482;9.802;2024-02-14T10:24:00;15.13;;;6.20;;
3779;SDS011;1905;52.482;9.802;2024-02-14T10:26:28;13.83;;;5.93;;
3779;SDS011;1905;52.482;9.802;2024-02-14T10:28:56;12.87;;;6.23;;
3779;SDS011;1905;52.482;9.802;2024-02-14T10:31:24;13.03;;;5.83;;
3779;SDS011;1905;52.482;9.802;2024-02-14T10:33:52;15.23;;;6.70;;
3779;SDS011;1905;52.482;9.802;2024-02-14T10:36:22;13.80;;;6.90;;
3779;SDS011;1905;52.482;9.802;2024-02-14T10:38:50;15.67;;;7.10;;
3779;SDS011;1905;52.482;9.802;2024-02-14T10:41:19;14.13;;;6.40;;
3779;SDS011;1905;52.482;9.802;2024-02-14T10:43:47;12.90;;;5.53;;
3779;SDS011;1905;52.482;9.802;2024-02-14T10:46:17;12.60;;;5.40;;
3779;SDS011;1905;52.482;9.802;2024-02-14T10:48:48;13.60;;;5.70;;
3779;SDS011;1905;52.482;9.802;2024-02-14T10:51:20;15.20;;;6.00;;
3779;SDS011;1905;52.482;9.802;2024-02-14T10:53:49;11.67;;;5.70;;
3779;SDS011;1905;52.482;9.802;2024-02-14T10:56:21;11.40;;;5.43;;
3779;SDS011;1905;52.482;9.802;2024-02-14T10:58:51;13.10;;;6.07;;
3779;SDS011;1905;52.482;9.802;2024-02-14T11:01:23;12.20;;;5.40;;
3779;SDS011;1905;52.482;9.802;2024-02-14T11:03:53;11.20;;;5.17;;
3779;SDS011;1905;52.482;9.802;2024-02-14T11:06:24;11.67;;;5.17;;
3779;SDS011;1905;52.482;9.802;2024-02-14T11:08:55;11.90;;;5.37;;
3779;SDS011;1905;52.482;9.802;2024-02-14T11:11:27;12.50;;;5.77;;
3779;SDS011;1905;52.482;9.802;2024-02-14T11:13:55;10.80;;;4.57;;
3779;SDS011;1905;52.482;9.802;2024-02-14T11:16:25;12.90;;;5.90;;
3779;SDS011;1905;52.482;9.802;2024-02-14T11:18:54;13.27;;;4.90;;
3779;SDS011;1905;52.482;9.802;2024-02-14T11:21:35;11.03;;;4.63;;
3779;SDS011;1905;52.482;9.802;2024-02-14T11:24:06;11.80;;;5.07;;
3779;SDS011;1905;52.482;9.802;2024-02-14T11:26:46;11.03;;;4.90;;
3779;SDS011;1905;52.482;9.802;2024-02-14T11:29:15;11.13;;;5.10;;
3779;SDS011;1905;52.482;9.802;2024-02-14T11:31:56;11.90;;;5.27;;
3779;SDS011;1905;52.482;9.802;2024-02-14T11:34:25;12.60;;;5.63;;
3779;SDS011;1905;52.482;9.802;2024-02-14T11:36:54;10.97;;;4.87;;
3779;SDS011;1905;52.482;9.802;2024-02-14T11:39:21;10.70;;;4.57;;
3779;SDS011;1905;52.482;9.802;2024-02-14T11:41:50;11.00;;;5.10;;
3779;SDS011;1905;52.482;9.802;2024-02-14T11:44:18;11.43;;;5.43;;
3779;SDS011;1905;52.482;9.802;2024-02-14T11:46:48;11.40;;;5.30;;
3779;SDS011;1905;52.482;9.802;2024-02-14T11:49:15;10.47;;;4.70;;
3779;SDS011;1905;52.482;9.802;2024-02-14T11:51:44;10.17;;;4.80;;
3779;SDS011;1905;52.482;9.802;2024-02-14T11:54:11;10.17;;;4.10;;
3779;SDS011;1905;52.482;9.802;2024-02-14T11:56:39;10.60;;;5.13;;
3779;SDS011;1905;52.482;9.802;2024-02-14T11:59:08;10.87;;;5.03;;
3779;SDS011;1905;52.482;9.802;2024-02-14T12:01:37;11.37;;;5.53;;
3779;SDS011;1905;52.482;9.802;2024-02-14T12:04:05;10.07;;;4.80;;
3779;SDS011;1905;52.482;9.802;2024-02-14T12:06:35;9.27;;;4.53;;
3779;SDS011;1905;52.482;9.802;2024-02-14T12:09:04;10.30;;;4.90;;
3779;SDS011;1905;52.482;9.802;2024-02-14T12:11:36;10.60;;;4.53;;
3779;SDS011;1905;52.482;9.802;2024-02-14T12:14:05;11.20;;;5.13;;
3779;SDS011;1905;52.482;9.802;2024-02-14T12:16:35;10.90;;;4.97;;
3779;SDS011;1905;52.482;9.802;2024-02-14T12:19:04;11.00;;;5.43;;
3779;SDS011;1905;52.482;9.802;2024-02-14T12:21:35;9.70;;;5.00;;
3779;SDS011;1905;52.482;9.802;2024-02-14T12:24:04;10.97;;;5.57;;
3779;SDS011;1905;52.482;9.802;2024-02-14T12:26:34;15.30;;;5.87;;
3779;SDS011;1905;52.482;9.802;2024-02-14T12:29:03;9.77;;;4.70;;
3779;SDS011;1905;52.482;9.802;2024-02-14T12:31:31;11.03;;;5.00;;
3779;SDS011;1905;52.482;9.802;2024-02-14T12:34:01;10.60;;;4.60;;
3779;SDS011;1905;52.482;9.802;2024-02-14T12:36:31;11.97;;;6.00;;
3779;SDS011;1905;52.482;9.802;2024-02-14T12:39:00;10.87;;;5.80;;
3779;SDS011;1905;52.482;9.802;2024-02-14T12:41:30;11.67;;;5.90;;
3779;SDS011;1905;52.482;9.802;2024-02-14T12:43:59;11.27;;;6.20;;
3779;SDS011;1905;52.482;9.802;2024-02-14T12:46:27;10.37;;;4.43;;
3779;SDS011;1905;52.482;9.802;2024-02-14T12:48:56;11.90;;;5.97;;
3779;SDS011;1905;52.482;9.802;2024-02-14T12:51:25;13.73;;;5.60;;
3779;SDS011;1905;52.482;9.802;2024-02-14T12:53:55;11.70;;;5.20;;
3779;SDS011;1905;52.482;9.802;2024-02-14T12:56:23;11.47;;;5.53;;
3779;SDS011;1905;52.482;9.802;2024-02-14T12:58:51;14.83;;;5.97;;
3779;SDS011;1905;52.482;9.802;2024-02-14T13:01:19;12.40;;;6.17;;
3779;SDS011;1905;52.482;9.802;2024-02-14T13:03:46;11.60;;;5.23;;
3779;SDS011;1905;52.482;9.802;2024-02-14T13:06:14;12.93;;;5.83;;
3779;SDS011;1905;52.482;9.802;2024-02-14T13:08:43;12.90;;;5.67;;
3779;SDS011;1905;52.482;9.802;2024-02-14T13:11:12;11.80;;;5.20;;
3779;SDS011;1905;52.482;9.802;2024-02-14T13:13:40;12.67;;;5.93;;
3779;SDS011;1905;52.482;9.802;2024-02-14T13:16:09;12.47;;;6.20;;
3779;SDS011;1905;52.482;9.802;2024-02-14T13:18:37;11.17;;;5.57;;
3779;SDS011;1905;52.482;9.802;2024-02-14T13:21:05;11.50;;;5.70;;
3779;SDS011;1905;52.482;9.802;2024-02-14T13:23:33;13.30;;;6.43;;
3779;SDS011;1905;52.482;9.802;2024-02-14T13:26:02;17.60;;;6.97;;
3779;SDS011;1905;52.482;9.802;2024-02-14T13:28:30;11.60;;;6.37;;
3779;SDS011;1905;52.482;9.802;2024-02-14T13:30:58;12.73;;;5.90;;
3779;SDS011;1905;52.482;9.802;2024-02-14T13:33:25;12.07;;;6.07;;
3779;SDS011;1905;52.482;9.802;2024-02-14T13:35:53;14.27;;;6.60;;
3779;SDS011;1905;52.482;9.802;2024-02-14T13:38:21;11.77;;;6.67;;
3779;SDS011;1905;52.482;9.802;2024-02-14T13:40:49;17.13;;;7.23;;
3779;SDS011;1905;52.482;9.802;2024-02-14T13:43:19;12.80;;;6.53;;
3779;SDS011;1905;52.482;9.802;2024-02-14T13:45:47;11.03;;;5.50;;
3779;SDS011;1905;52.482;9.802;2024-02-14T13:48:16;12.47;;;6.00;;
3779;SDS011;1905;52.482;9.802;2024-02-14T13:50:44;12.90;;;6.67;;
3779;SDS011;1905;52.482;9.802;2024-02-14T13:53:12;13.83;;;6.03;;
3779;SDS011;1905;52.482;9.802;2024-02-14T13:55:39;15.50;;;7.07;;
3779;SDS011;1905;52.482;9.802;2024-02-14T13:58:07;11.53;;;5.73;;
3779;SDS011;1905;52.482;9.802;2024-02-14T14:00:42;10.80;;;5.57;;
3779;SDS011;1905;52.482;9.802;2024-02-14T14:03:10;12.27;;;6.23;;
3779;SDS011;1905;52.482;9.802;2024-02-14T14:05:38;13.90;;;5.47;;
3779;SDS011;1905;52.482;9.802;2024-02-14T14:08:07;13.50;;;5.73;;
3779;SDS011;1905;52.482;9.802;2024-02-14T14:10:34;11.47;;;5.40;;
3779;SDS011;1905;52.482;9.802;2024-02-14T14:13:02;10.80;;;5.37;;
3779;SDS011;1905;52.482;9.802;2024-02-14T14:15:30;11.67;;;5.73;;
3779;SDS011;1905;52.482;9.802;2024-02-14T14:18:00;11.07;;;5.23;;
3779;SDS011;1905;52.482;9.802;2024-02-14T14:20:28;11.03;;;5.50;;
3779;SDS011;1905;52.482;9.802;2024-02-14T14:22:56;14.00;;;5.80;;
3779;SDS011;1905;52.482;9.802;2024-02-14T14:25:23;11.67;;;5.53;;
3779;SDS011;1905;52.482;9.802;2024-02-14T14:27:51;9.73;;;4.97;;
3779;SDS011;1905;52.482;9.802;2024-02-14T14:30:19;11.20;;;5.17;;
3779;SDS011;1905;52.482;9.802;2024-02-14T14:32:46;11.67;;;4.87;;
3779;SDS011;1905;52.482;9.802;2024-02-14T14:35:15;11.40;;;5.30;;
3779;SDS011;1905;52.482;9.802;2024-02-14T14:37:43;10.73;;;4.60;;
3779;SDS011;1905;52.482;9.802;2024-02-14T14:40:11;10.73;;;5.20;;
3779;SDS011;1905;52.482;9.802;2024-02-14T14:42:39;12.60;;;5.30;;
3779;SDS011;1905;52.482;9.802;2024-02-14T14:45:06;11.90;;;4.90;;
3779;SDS011;1905;52.482;9.802;2024-02-14T14:47:35;9.57;;;4.07;;
3779;SDS011;1905;52.482;9.802;2024-02-14T14:50:04;10.13;;;4.40;;
3779;SDS011;1905;52.482;9.802;2024-02-14T14:52:35;10.13;;;4.63;;
3779;SDS011;1905;52.482;9.802;2024-02-14T14:55:04;9.87;;;4.13;;
3779;SDS011;1905;52.482;9.802;2024-02-14T14:57:32;11.67;;;4.43;;
3779;SDS011;1905;52.482;9.802;2024-02-14T15:00:07;8.67;;;3.87;;
3779;SDS011;1905;52.482;9.802;2024-02-14T15:02:37;8.77;;;4.10;;
3779;SDS011;1905;52.482;9.802;2024-02-14T15:05:07;9.10;;;3.73;;
3779;SDS011;1905;52.482;9.802;2024-02-14T15:07:36;10.20;;;4.47;;
3779;SDS011;1905;52.482;9.802;2024-02-14T15:10:06;10.23;;;4.30;;
3779;SDS011;1905;52.482;9.802;2024-02-14T15:12:36;10.30;;;3.83;;
3779;SDS011;1905;52.482;9.802;2024-02-14T15:15:04;9.90;;;4.37;;
3779;SDS011;1905;52.482;9.802;2024-02-14T15:17:32;8.97;;;3.53;;